Aérodrome :
LOGIN :

S'inscrire | Disclaimer

   EN    FR    IT 

 










Légende :    VFR   VFR Marginal   IFR   IFR Intensif   IFR Très Intensif
Visi : 
Plafond : 
>= 8 km
>= 3000ft
5 à 8 km
1000 à 3000 ft
1500m à 5 km
500 à 1000 ft
800 à 1500m
200 à 500 ft
< 800m
< 200 ft
Symboles :   Orages  Brouillard  Fortes neiges  Fortes précipitations  Vent > 20 kt
SIGMETs :   Divers  Orages  Givrage  Turbulence  Onde Orograph.  Cendres Volcan.






- Altitude de l'aérodrome : 1758 ft
- Code IATA : MZH


LTAP - Merzifon AB

DERNIER METAR :
  • 301950Z 00000KT 9999 SCT040 BKN100 09/06 Q1013 NOSIG RMK RWY23 01004KT

METARs EXPIRÉS :
  • 301920Z 05002KT 9999 SCT040 BKN100 09/06 Q1012 NOSIG
  • 301850Z 05004KT 9999 SCT040 BKN100 09/05 Q1012 NOSIG
  • 301820Z 34005KT 9999 SCT040 BKN100 10/05 Q1012 NOSIG RMK RWY23 34005KT
  • 301750Z 34004KT 9999 SCT040 BKN100 10/04 Q1012 NOSIG RMK RWY23 34006KT
  • 301720Z VRB02KT 9999 SCT040 BKN100 10/04 Q1012 NOSIG RMK RWY23 01003KT 350V070

TAF TAF LTAP
Valide du 30 à 18h jusqu'au 31 à 18h UTC


301640Z 3018/3118 VRB02KT 9999 SCT040 BKN100
BECMG 3107/3111 03015KT



MET'MAP, la Météo Aéronautique d'un coup d'oeil ! - Copyright ORBIFLY Décembre 2007 - Disclaimer

ORBIFLY MET'MAP TEAM :

Programmation & Développement : Alexandra Zaïnal
Sur une idée originale de : Baudouin d'Aumeries
Assistance à la programmation : Marc-Olivier Méhu
Soutien technique & logistique : Manuel Goepfert

Contact : metmap@orbifly.com




SOURCES & CREDITS :

   NOAA